Time;durP1;ratioP1;P1;durP2;ratioP2;P2;SDS_P1;SDS_P2;PMS_P1;PMS_P2;Temp;Humidity;BMP_temperature;BMP_pressure;BME280_temperature;BME280_humidity;BME280_pressure;Samples;Min_cycle;Max_cycle;Signal;HPM_P1;HPM_P2
2024/01/29 00:02:22;;;;;;;9.10;2.58;;;;;;;;;;4980002;28;20140;-62
2024/01/29 00:04:48;;;;;;;5.13;2.45;;;;;;;;;;4946754;28;20057;-63
2024/01/29 00:07:15;;;;;;;8.55;2.92;;;;;;;;;;4952451;28;20047;-63
2024/01/29 00:09:45;;;;;;;6.45;2.58;;;;;;;;;;4957724;28;20059;-64
2024/01/29 00:12:13;;;;;;;7.60;2.78;;;;;;;;;;4952366;28;20141;-63
2024/01/29 00:14:40;;;;;;;7.18;3.10;;;;;;;;;;4944567;28;20055;-64
2024/01/29 00:17:07;;;;;;;7.15;2.85;;;;;;;;;;4937550;28;20125;-64
2024/01/29 00:19:34;;;;;;;6.43;2.42;;;;;;;;;;4941317;28;20049;-64
2024/01/29 00:22:01;;;;;;;5.32;2.47;;;;;;;;;;4935622;28;20051;-63
2024/01/29 00:24:27;;;;;;;6.78;2.78;;;;;;;;;;4957997;28;20561;-64
2024/01/29 00:26:56;;;;;;;6.55;2.75;;;;;;;;;;4930566;28;20180;-64
2024/01/29 00:29:26;;;;;;;7.32;2.65;;;;;;;;;;4976991;28;20055;-63
2024/01/29 00:31:53;;;;;;;7.68;2.92;;;;;;;;;;4946050;28;20077;-64
2024/01/29 00:34:20;;;;;;;7.15;2.72;;;;;;;;;;4947683;28;20218;-63
2024/01/29 00:36:47;;;;;;;8.73;3.05;;;;;;;;;;4933505;28;20055;-63
2024/01/29 00:39:14;;;;;;;7.60;2.70;;;;;;;;;;4938887;28;20059;-63
2024/01/29 00:41:41;;;;;;;7.63;2.67;;;;;;;;;;4977055;28;20424;-63
2024/01/29 00:44:08;;;;;;;9.55;2.70;;;;;;;;;;4937362;28;20130;-63
2024/01/29 00:46:39;;;;;;;5.93;2.80;;;;;;;;;;4963453;28;20125;-63
2024/01/29 00:49:06;;;;;;;7.88;2.70;;;;;;;;;;4945835;28;20053;-64
2024/01/29 00:51:33;;;;;;;7.28;2.80;;;;;;;;;;4941435;28;20043;-63
2024/01/29 00:54:01;;;;;;;6.35;2.80;;;;;;;;;;4940672;28;20050;-63
2024/01/29 00:56:28;;;;;;;7.35;2.72;;;;;;;;;;4933162;28;20063;-62
2024/01/29 00:58:55;;;;;;;7.65;2.30;;;;;;;;;;4952395;28;20054;-63
2024/01/29 01:01:21;;;;;;;6.75;2.92;;;;;;;;;;4951464;28;20141;-63
2024/01/29 01:03:52;;;;;;;7.60;2.55;;;;;;;;;;4982383;28;20046;-63
2024/01/29 01:06:18;;;;;;;6.30;2.78;;;;;;;;;;4932358;28;21515;-63
2024/01/29 01:08:45;;;;;;;7.07;2.40;;;;;;;;;;4941512;28;20058;-63
2024/01/29 01:11:12;;;;;;;6.50;2.97;;;;;;;;;;4941271;28;20054;-63
2024/01/29 01:13:39;;;;;;;8.63;2.63;;;;;;;;;;4942040;28;20055;-63
2024/01/29 01:16:06;;;;;;;7.05;2.53;;;;;;;;;;4934724;28;20389;-63
2024/01/29 01:18:32;;;;;;;6.13;2.47;;;;;;;;;;4972600;28;20055;-63
2024/01/29 01:21:00;;;;;;;6.70;2.63;;;;;;;;;;4940557;28;20062;-63
2024/01/29 01:23:27;;;;;;;8.43;2.80;;;;;;;;;;4944030;28;20062;-63
2024/01/29 01:25:54;;;;;;;8.23;3.17;;;;;;;;;;4943703;28;20063;-63
2024/01/29 01:28:21;;;;;;;7.45;2.58;;;;;;;;;;4961332;28;20078;-63
2024/01/29 01:30:48;;;;;;;7.70;2.60;;;;;;;;;;4945247;28;20039;-63
2024/01/29 01:33:15;;;;;;;6.75;2.50;;;;;;;;;;4954333;28;20127;-64
2024/01/29 01:35:43;;;;;;;7.65;3.10;;;;;;;;;;4942528;28;20054;-63
2024/01/29 01:38:12;;;;;;;8.98;3.15;;;;;;;;;;4968540;28;20055;-63
2024/01/29 01:40:38;;;;;;;5.00;2.13;;;;;;;;;;4954732;28;20061;-63
2024/01/29 01:43:19;;;;;;;7.50;3.03;;;;;;;;;;4943408;28;20054;-63
2024/01/29 01:46:07;;;;;;;7.10;2.75;;;;;;;;;;4935710;28;20051;-63
2024/01/29 01:48:34;;;;;;;18.60;3.28;;;;;;;;;;4942776;28;20047;-63
2024/01/29 01:51:01;;;;;;;7.60;2.75;;;;;;;;;;4956864;28;20055;-63
2024/01/29 01:53:31;;;;;;;7.28;2.65;;;;;;;;;;4964576;28;20054;-63
2024/01/29 01:56:00;;;;;;;7.45;3.20;;;;;;;;;;4947132;28;20098;-63
2024/01/29 01:58:28;;;;;;;11.00;3.22;;;;;;;;;;4973260;28;20059;-63
2024/01/29 02:00:56;;;;;;;10.88;3.28;;;;;;;;;;4966675;28;20060;-64
2024/01/29 02:03:23;;;;;;;5.15;2.53;;;;;;;;;;4963473;28;20059;-63
2024/01/29 02:05:51;;;;;;;8.90;3.28;;;;;;;;;;4942879;28;20059;-63
2024/01/29 02:08:18;;;;;;;8.27;3.17;;;;;;;;;;4962460;28;20061;-63
2024/01/29 02:10:46;;;;;;;7.50;3.08;;;;;;;;;;4991052;28;20093;-63
2024/01/29 02:13:14;;;;;;;8.25;3.08;;;;;;;;;;4969289;28;20104;-63
2024/01/29 02:15:42;;;;;;;9.88;3.10;;;;;;;;;;4957282;28;20054;-63
2024/01/29 02:18:09;;;;;;;;;;;;;;;;;;4939166;28;20058;-63
2024/01/29 02:20:36;;;;;;;6.97;2.63;;;;;;;;;;4968948;28;20183;-63
2024/01/29 02:23:04;;;;;;;7.70;3.05;;;;;;;;;;4965277;28;20058;-63
2024/01/29 02:25:31;;;;;;;7.68;2.95;;;;;;;;;;4970703;28;20061;-63
2024/01/29 02:27:58;;;;;;;5.47;2.75;;;;;;;;;;4951425;28;20058;-63
2024/01/29 02:30:27;;;;;;;8.35;3.10;;;;;;;;;;4954414;28;20055;-63
2024/01/29 02:32:54;;;;;;;8.82;3.15;;;;;;;;;;4957550;28;20276;-63
2024/01/29 02:35:22;;;;;;;7.13;3.10;;;;;;;;;;4957396;28;20054;-63
2024/01/29 02:37:49;;;;;;;6.82;2.58;;;;;;;;;;4953146;28;20070;-63
2024/01/29 02:40:18;;;;;;;6.05;2.78;;;;;;;;;;4948029;28;20060;-63
2024/01/29 02:42:45;;;;;;;8.93;3.08;;;;;;;;;;4960891;28;20108;-63
2024/01/29 02:45:12;;;;;;;7.72;2.78;;;;;;;;;;4996697;28;20118;-63
2024/01/29 02:47:39;;;;;;;11.65;3.03;;;;;;;;;;4950584;28;20061;-62
2024/01/29 02:50:06;;;;;;;6.18;2.90;;;;;;;;;;4961998;28;20054;-63
2024/01/29 02:52:33;;;;;;;6.88;3.10;;;;;;;;;;4965693;28;20104;-63
2024/01/29 02:55:00;;;;;;;7.25;2.95;;;;;;;;;;4969264;28;20204;-63
2024/01/29 02:57:28;;;;;;;5.88;2.92;;;;;;;;;;4951240;28;20057;-63
2024/01/29 02:59:55;;;;;;;6.05;2.88;;;;;;;;;;4959170;28;20047;-63
2024/01/29 03:02:22;;;;;;;7.68;2.65;;;;;;;;;;4963964;28;20077;-63
2024/01/29 03:04:51;;;;;;;9.00;3.05;;;;;;;;;;4906905;28;20054;-63
2024/01/29 03:07:18;;;;;;;6.70;2.55;;;;;;;;;;4953704;28;20055;-63
2024/01/29 03:09:48;;;;;;;5.50;2.70;;;;;;;;;;4988968;28;20142;-63
2024/01/29 03:12:17;;;;;;;8.52;2.80;;;;;;;;;;4994307;28;20153;-63
2024/01/29 03:14:45;;;;;;;7.78;2.83;;;;;;;;;;4988218;28;20054;-64
2024/01/29 03:17:12;;;;;;;5.72;2.50;;;;;;;;;;4989084;28;20070;-63
2024/01/29 03:19:40;;;;;;;11.88;3.08;;;;;;;;;;4962628;28;20374;-63
2024/01/29 03:22:07;;;;;;;10.90;3.20;;;;;;;;;;4987500;28;20059;-63
2024/01/29 03:24:33;;;;;;;6.70;2.67;;;;;;;;;;4971653;28;20100;-63
2024/01/29 03:27:00;;;;;;;7.75;2.70;;;;;;;;;;4984932;28;20045;-63
2024/01/29 03:29:27;;;;;;;6.47;2.67;;;;;;;;;;4958440;28;20092;-63
2024/01/29 03:31:55;;;;;;;9.93;3.33;;;;;;;;;;4963175;28;20101;-63
2024/01/29 03:34:22;;;;;;;7.65;2.95;;;;;;;;;;4995626;28;20059;-64
2024/01/29 03:36:49;;;;;;;7.10;2.72;;;;;;;;;;4967708;28;20055;-63
2024/01/29 03:39:16;;;;;;;7.95;3.22;;;;;;;;;;4954640;28;20049;-63
2024/01/29 03:41:44;;;;;;;7.65;2.55;;;;;;;;;;4958668;28;20051;-63
2024/01/29 03:44:09;;;;;;;7.95;2.78;;;;;;;;;;4943997;28;20055;-63
2024/01/29 03:46:38;;;;;;;7.55;2.67;;;;;;;;;;4953350;28;20108;-64
2024/01/29 03:49:06;;;;;;;;;;;;;;;;;;4995729;28;20117;-63
2024/01/29 03:51:33;;;;;;;9.95;2.35;;;;;;;;;;4960684;28;19926;-63
2024/01/29 03:53:59;;;;;;;5.72;2.55;;;;;;;;;;4988816;28;20151;-63
2024/01/29 03:56:26;;;;;;;11.57;3.15;;;;;;;;;;4959235;28;20053;-63
2024/01/29 03:58:53;;;;;;;8.60;2.50;;;;;;;;;;4968316;28;20119;-63
2024/01/29 04:01:27;;;;;;;7.30;3.00;;;;;;;;;;4960541;28;20151;-63
2024/01/29 04:03:55;;;;;;;7.93;2.80;;;;;;;;;;4945014;28;20083;-63
2024/01/29 04:06:24;;;;;;;6.95;2.72;;;;;;;;;;4994854;28;20138;-63
2024/01/29 04:08:51;;;;;;;8.68;3.03;;;;;;;;;;4961737;28;20047;-63
2024/01/29 04:11:17;;;;;;;7.68;2.72;;;;;;;;;;4961244;28;20169;-64
2024/01/29 04:13:45;;;;;;;9.52;3.00;;;;;;;;;;4983229;28;20057;-63
2024/01/29 04:16:12;;;;;;;8.05;3.20;;;;;;;;;;4992974;28;20054;-63
2024/01/29 04:18:39;;;;;;;7.57;2.80;;;;;;;;;;4965059;28;20392;-63
2024/01/29 04:21:07;;;;;;;10.60;3.55;;;;;;;;;;4962541;28;20053;-63
2024/01/29 04:23:36;;;;;;;6.75;3.17;;;;;;;;;;4962213;28;20103;-63
2024/01/29 04:26:03;;;;;;;8.80;2.85;;;;;;;;;;4996604;28;20062;-63
2024/01/29 04:28:30;;;;;;;6.78;2.65;;;;;;;;;;4964992;28;20133;-63
2024/01/29 04:30:57;;;;;;;7.30;2.92;;;;;;;;;;4973607;28;20055;-63
2024/01/29 04:33:24;;;;;;;7.18;3.25;;;;;;;;;;4965745;28;20047;-64
2024/01/29 04:35:51;;;;;;;8.80;2.78;;;;;;;;;;4944887;28;20127;-64
2024/01/29 04:38:18;;;;;;;6.85;2.90;;;;;;;;;;4976136;28;20081;-62
2024/01/29 04:40:46;;;;;;;6.32;2.67;;;;;;;;;;4960733;28;20047;-65
2024/01/29 04:43:13;;;;;;;8.85;3.78;;;;;;;;;;4962860;28;20054;-62
2024/01/29 04:45:40;;;;;;;7.05;3.22;;;;;;;;;;4972066;28;20131;-63
2024/01/29 04:48:07;;;;;;;7.50;3.13;;;;;;;;;;4955686;28;20513;-62
2024/01/29 04:50:34;;;;;;;8.50;3.40;;;;;;;;;;5002568;28;20051;-62
2024/01/29 04:53:00;;;;;;;8.75;3.15;;;;;;;;;;4964312;28;20054;-62
2024/01/29 04:55:27;;;;;;;5.93;2.83;;;;;;;;;;4954873;28;20100;-62
2024/01/29 04:57:56;;;;;;;7.65;3.00;;;;;;;;;;4956662;28;20057;-63
2024/01/29 05:00:24;;;;;;;6.13;2.97;;;;;;;;;;4991601;28;20051;-63
2024/01/29 05:02:53;;;;;;;8.43;2.65;;;;;;;;;;4961313;28;20039;-63
2024/01/29 05:05:20;;;;;;;8.05;3.40;;;;;;;;;;4939726;28;20050;-63
2024/01/29 05:07:51;;;;;;;8.18;3.30;;;;;;;;;;4992011;28;20051;-64
2024/01/29 05:10:18;;;;;;;10.23;3.10;;;;;;;;;;4993037;28;20047;-63
2024/01/29 05:12:45;;;;;;;7.85;3.17;;;;;;;;;;4963277;28;20053;-62
2024/01/29 05:15:13;;;;;;;6.00;2.97;;;;;;;;;;4959570;28;20108;-63
2024/01/29 05:17:43;;;;;;;7.05;2.70;;;;;;;;;;4968257;28;20077;-64
2024/01/29 05:20:11;;;;;;;6.75;3.13;;;;;;;;;;4964497;28;20051;-62
2024/01/29 05:22:38;;;;;;;10.35;2.58;;;;;;;;;;4972719;28;20046;-63
2024/01/29 05:25:05;;;;;;;6.78;2.42;;;;;;;;;;4966345;28;20500;-63
2024/01/29 05:27:32;;;;;;;5.95;2.80;;;;;;;;;;4972205;28;20239;-63
2024/01/29 05:29:58;;;;;;;8.55;2.50;;;;;;;;;;4995539;28;20077;-63
2024/01/29 05:32:27;;;;;;;7.55;2.65;;;;;;;;;;4971463;28;20049;-63
2024/01/29 05:34:53;;;;;;;8.43;3.10;;;;;;;;;;4957905;28;20155;-63
2024/01/29 05:37:20;;;;;;;5.18;2.42;;;;;;;;;;4956641;28;20043;-63
2024/01/29 05:39:49;;;;;;;9.25;3.30;;;;;;;;;;4956724;28;20154;-63
2024/01/29 05:42:16;;;;;;;;;;;;;;;;;;4966222;28;20047;-63
2024/01/29 05:44:42;;;;;;;7.85;2.88;;;;;;;;;;4959376;28;19932;-63
2024/01/29 05:47:09;;;;;;;8.32;3.47;;;;;;;;;;4969613;28;20287;-62
2024/01/29 05:49:37;;;;;;;6.47;2.83;;;;;;;;;;4980750;28;20112;-63
2024/01/29 05:52:05;;;;;;;6.40;3.08;;;;;;;;;;4970698;28;20063;-63
2024/01/29 05:54:32;;;;;;;8.48;2.70;;;;;;;;;;4929743;28;20102;-63
2024/01/29 05:56:59;;;;;;;7.47;3.25;;;;;;;;;;4948503;28;20140;-63
2024/01/29 05:59:25;;;;;;;9.10;3.17;;;;;;;;;;4958818;28;20058;-64
2024/01/29 06:01:53;;;;;;;10.20;3.08;;;;;;;;;;4985386;28;20047;-64
2024/01/29 06:04:19;;;;;;;10.10;3.72;;;;;;;;;;4977411;28;20163;-62
2024/01/29 06:06:47;;;;;;;8.82;3.13;;;;;;;;;;4952859;28;20116;-64
2024/01/29 06:09:15;;;;;;;8.13;3.00;;;;;;;;;;4951689;28;20059;-63
2024/01/29 06:11:42;;;;;;;9.98;3.25;;;;;;;;;;4951250;28;20043;-63
2024/01/29 06:14:08;;;;;;;8.18;3.00;;;;;;;;;;4928317;28;21530;-63
2024/01/29 06:16:35;;;;;;;7.85;3.13;;;;;;;;;;4975048;28;20062;-62
2024/01/29 06:19:02;;;;;;;6.78;3.17;;;;;;;;;;4946461;28;20132;-62
2024/01/29 06:21:28;;;;;;;7.18;2.70;;;;;;;;;;4946068;28;20082;-62
2024/01/29 06:23:57;;;;;;;9.77;3.17;;;;;;;;;;4945932;28;22101;-62
2024/01/29 06:26:24;;;;;;;7.07;2.88;;;;;;;;;;4973658;28;20499;-64
2024/01/29 06:28:50;;;;;;;6.18;2.63;;;;;;;;;;4987805;28;20059;-62
2024/01/29 06:31:17;;;;;;;7.53;3.42;;;;;;;;;;4956017;28;20043;-63
2024/01/29 06:33:45;;;;;;;8.48;3.30;;;;;;;;;;4948215;28;20082;-65
2024/01/29 06:36:25;;;;;;;9.88;3.50;;;;;;;;;;4972008;28;20118;-63
2024/01/29 06:38:55;;;;;;;7.53;3.22;;;;;;;;;;4955583;28;20061;-63
2024/01/29 06:41:24;;;;;;;9.00;3.20;;;;;;;;;;4966752;28;20072;-64
2024/01/29 06:43:55;;;;;;;8.05;3.28;;;;;;;;;;4945774;28;20054;-65
2024/01/29 06:46:25;;;;;;;7.00;2.75;;;;;;;;;;4981082;28;20064;-62
2024/01/29 06:48:52;;;;;;;7.32;3.25;;;;;;;;;;4965653;28;20057;-62
2024/01/29 06:51:20;;;;;;;7.43;2.67;;;;;;;;;;4960235;28;20138;-63
2024/01/29 06:53:50;;;;;;;8.15;2.80;;;;;;;;;;4965679;28;20064;-64
2024/01/29 06:56:17;;;;;;;12.15;3.53;;;;;;;;;;4958285;28;20054;-62
2024/01/29 06:58:45;;;;;;;7.50;3.35;;;;;;;;;;4967554;28;20062;-63
2024/01/29 07:01:12;;;;;;;9.63;3.33;;;;;;;;;;4958674;28;20107;-63
2024/01/29 07:03:45;;;;;;;7.78;3.28;;;;;;;;;;4967599;28;20115;-65
2024/01/29 07:06:12;;;;;;;6.82;3.10;;;;;;;;;;4848816;28;20971;-64
2024/01/29 07:08:38;;;;;;;12.23;4.82;;;;;;;;;;4973438;28;20054;-63
2024/01/29 07:11:05;;;;;;;21.70;9.18;;;;;;;;;;4972942;28;20054;-63
2024/01/29 07:13:32;;;;;;;25.00;10.68;;;;;;;;;;4960070;28;20051;-63
2024/01/29 07:16:00;;;;;;;14.93;7.35;;;;;;;;;;4936546;28;20062;-63
2024/01/29 07:18:29;;;;;;;9.07;3.42;;;;;;;;;;4960990;28;20054;-62
2024/01/29 07:20:55;;;;;;;8.82;3.92;;;;;;;;;;4993626;28;20396;-63
2024/01/29 07:23:23;;;;;;;8.90;3.47;;;;;;;;;;4962307;28;20265;-64
2024/01/29 07:25:52;;;;;;;9.05;3.80;;;;;;;;;;4958956;28;20055;-64
2024/01/29 07:28:22;;;;;;;8.85;3.70;;;;;;;;;;4977350;28;20066;-64
2024/01/29 07:30:48;;;;;;;7.68;3.45;;;;;;;;;;4964958;28;20050;-63
2024/01/29 07:33:17;;;;;;;8.13;2.63;;;;;;;;;;4976192;28;20066;-62
2024/01/29 07:35:49;;;;;;;9.07;2.75;;;;;;;;;;4947303;28;20061;-63
2024/01/29 07:38:18;;;;;;;7.15;3.00;;;;;;;;;;4966683;28;20049;-63
2024/01/29 07:40:45;;;;;;;8.23;3.35;;;;;;;;;;4953095;28;20054;-62
2024/01/29 07:43:12;;;;;;;13.85;4.50;;;;;;;;;;4966528;28;20043;-63
2024/01/29 07:45:42;;;;;;;8.82;3.85;;;;;;;;;;4952350;28;20142;-63
2024/01/29 07:48:09;;;;;;;8.95;3.85;;;;;;;;;;4985200;28;20066;-64
2024/01/29 07:50:41;;;;;;;9.85;3.38;;;;;;;;;;4999988;28;20050;-63
2024/01/29 07:53:15;;;;;;;8.93;3.65;;;;;;;;;;4999662;27;20065;-63
2024/01/29 07:55:42;;;;;;;10.57;3.38;;;;;;;;;;4952118;28;20146;-64
2024/01/29 07:58:11;;;;;;;10.65;2.88;;;;;;;;;;4964559;28;20055;-63
2024/01/29 08:00:42;;;;;;;10.10;3.55;;;;;;;;;;4980222;28;20061;-62
2024/01/29 08:03:11;;;;;;;7.93;3.22;;;;;;;;;;4963765;28;20170;-63
2024/01/29 08:05:38;;;;;;;10.80;3.55;;;;;;;;;;4945722;28;20194;-62
2024/01/29 08:08:07;;;;;;;9.38;3.20;;;;;;;;;;4964105;28;20047;-62
2024/01/29 08:10:35;;;;;;;9.88;3.78;;;;;;;;;;4962288;28;20057;-63
2024/01/29 08:13:05;;;;;;;10.38;3.53;;;;;;;;;;4970186;28;20139;-63
2024/01/29 08:15:32;;;;;;;8.80;4.18;;;;;;;;;;4894527;28;20250;-62
2024/01/29 08:18:03;;;;;;;7.88;3.47;;;;;;;;;;4916428;28;20101;-62
2024/01/29 08:20:32;;;;;;;6.55;2.75;;;;;;;;;;4955587;28;20071;-62
2024/01/29 08:23:02;;;;;;;10.80;3.83;;;;;;;;;;4924059;28;20070;-63
2024/01/29 08:25:33;;;;;;;10.32;3.75;;;;;;;;;;4877505;28;20088;-63
2024/01/29 08:28:02;;;;;;;8.85;3.35;;;;;;;;;;4947196;28;20059;-62
2024/01/29 08:30:30;;;;;;;8.27;3.55;;;;;;;;;;4964565;28;20051;-63
2024/01/29 08:33:03;;;;;;;9.70;3.45;;;;;;;;;;4963450;28;20055;-62
2024/01/29 08:35:36;;;;;;;8.25;3.78;;;;;;;;;;4914975;28;20055;-63
2024/01/29 08:38:03;;;;;;;12.02;5.35;;;;;;;;;;4953289;28;20063;-63
2024/01/29 08:40:35;;;;;;;12.50;4.82;;;;;;;;;;4969998;28;20057;-63
2024/01/29 08:43:02;;;;;;;22.63;8.35;;;;;;;;;;4954339;28;20501;-64
2024/01/29 08:45:29;;;;;;;10.63;5.43;;;;;;;;;;4896537;28;20066;-63
2024/01/29 08:47:56;;;;;;;8.07;3.85;;;;;;;;;;4961625;28;20134;-63
2024/01/29 08:50:23;;;;;;;8.27;3.63;;;;;;;;;;4966254;28;20066;-62
2024/01/29 08:52:53;;;;;;;8.93;4.03;;;;;;;;;;4969033;28;20111;-62
2024/01/29 08:55:20;;;;;;;9.82;3.95;;;;;;;;;;4907175;28;20128;-63
2024/01/29 08:57:48;;;;;;;8.98;3.38;;;;;;;;;;4953067;28;20083;-64
2024/01/29 09:00:18;;;;;;;7.07;3.50;;;;;;;;;;4961856;28;20070;-63
2024/01/29 09:02:46;;;;;;;8.93;3.78;;;;;;;;;;4994829;28;20068;-61
2024/01/29 09:05:13;;;;;;;9.32;3.55;;;;;;;;;;4940315;28;20057;-62
2024/01/29 09:07:45;;;;;;;7.97;3.75;;;;;;;;;;4976485;28;20086;-62
2024/01/29 09:10:26;;;;;;;7.93;3.30;;;;;;;;;;4989981;28;20075;-62
2024/01/29 09:13:04;;;;;;;8.30;3.28;;;;;;;;;;4960246;28;20100;-62
2024/01/29 09:15:41;;;;;;;11.05;4.00;;;;;;;;;;4970092;28;20054;-62
2024/01/29 09:18:08;;;;;;;9.98;3.58;;;;;;;;;;4960793;28;21074;-62
2024/01/29 09:20:35;;;;;;;9.27;3.72;;;;;;;;;;4969059;28;20046;-63
2024/01/29 09:23:01;;;;;;;9.55;4.03;;;;;;;;;;4994471;28;20062;-62
2024/01/29 09:25:28;;;;;;;10.63;5.05;;;;;;;;;;4943859;28;20051;-63
2024/01/29 09:27:59;;;;;;;16.73;7.32;;;;;;;;;;4955539;28;20065;-62
2024/01/29 09:30:29;;;;;;;14.90;5.53;;;;;;;;;;4959456;28;20042;-62
2024/01/29 09:33:01;;;;;;;10.70;3.80;;;;;;;;;;4963027;28;20077;-62
2024/01/29 09:35:31;;;;;;;7.55;3.72;;;;;;;;;;4946080;28;20130;-63
2024/01/29 09:38:10;;;;;;;10.90;4.13;;;;;;;;;;4955710;28;20086;-63
2024/01/29 09:40:39;;;;;;;8.25;3.80;;;;;;;;;;4963599;28;20083;-62
2024/01/29 09:43:12;;;;;;;14.00;3.55;;;;;;;;;;4964859;28;20137;-64
2024/01/29 09:45:46;;;;;;;8.55;3.70;;;;;;;;;;4937658;28;20061;-63
2024/01/29 09:48:21;;;;;;;10.20;3.92;;;;;;;;;;4970605;28;20050;-63
2024/01/29 09:50:53;;;;;;;9.00;3.78;;;;;;;;;;4966647;28;20118;-64
2024/01/29 09:53:24;;;;;;;8.55;3.30;;;;;;;;;;4957474;28;20051;-63
2024/01/29 09:55:53;;;;;;;9.88;4.28;;;;;;;;;;4967030;28;21373;-63
2024/01/29 09:58:22;;;;;;;12.90;3.88;;;;;;;;;;4997445;28;20112;-62
2024/01/29 10:00:50;;;;;;;12.32;4.75;;;;;;;;;;4971219;28;20075;-62
2024/01/29 10:03:27;;;;;;;11.00;4.43;;;;;;;;;;4970284;28;20063;-64
2024/01/29 10:05:56;;;;;;;11.20;4.22;;;;;;;;;;4910354;28;20070;-64
2024/01/29 10:08:25;;;;;;;9.15;3.88;;;;;;;;;;4903091;28;20047;-63
2024/01/29 10:10:52;;;;;;;10.73;4.47;;;;;;;;;;4902793;28;20138;-64
2024/01/29 10:13:19;;;;;;;15.07;4.65;;;;;;;;;;4936529;28;20052;-63
2024/01/29 10:15:53;;;;;;;9.38;4.13;;;;;;;;;;4926718;28;20065;-63
2024/01/29 10:18:21;;;;;;;9.93;4.50;;;;;;;;;;4958053;28;20262;-63
2024/01/29 10:20:48;;;;;;;10.60;4.05;;;;;;;;;;4968334;28;20130;-62
2024/01/29 10:23:15;;;;;;;12.43;4.65;;;;;;;;;;4968033;28;20050;-63
2024/01/29 10:25:55;;;;;;;11.70;5.15;;;;;;;;;;4968244;28;20111;-63
2024/01/29 10:28:26;;;;;;;10.68;4.55;;;;;;;;;;5003111;28;20050;-64
2024/01/29 10:30:55;;;;;;;8.45;3.78;;;;;;;;;;4963415;28;20058;-63
2024/01/29 10:33:22;;;;;;;9.38;4.03;;;;;;;;;;4959231;28;20078;-64
2024/01/29 10:35:52;;;;;;;10.30;4.43;;;;;;;;;;4971294;28;20110;-63
2024/01/29 10:38:22;;;;;;;11.63;4.57;;;;;;;;;;5007812;28;20127;-64
2024/01/29 10:40:50;;;;;;;11.80;4.32;;;;;;;;;;4973936;28;20062;-63
2024/01/29 10:43:19;;;;;;;9.85;4.15;;;;;;;;;;4957944;28;20054;-63
2024/01/29 10:45:51;;;;;;;8.98;4.30;;;;;;;;;;4963368;28;20096;-63
2024/01/29 10:48:21;;;;;;;14.65;4.55;;;;;;;;;;4960675;28;20133;-65
2024/01/29 10:50:49;;;;;;;10.38;4.63;;;;;;;;;;4997145;28;20166;-63
2024/01/29 10:53:17;;;;;;;9.25;4.25;;;;;;;;;;4966257;28;20104;-64
2024/01/29 10:55:45;;;;;;;8.95;3.90;;;;;;;;;;4935904;28;20066;-65
2024/01/29 10:58:14;;;;;;;11.25;4.28;;;;;;;;;;4968788;28;20057;-64
2024/01/29 11:00:44;;;;;;;11.20;4.32;;;;;;;;;;4974399;28;20062;-63
2024/01/29 11:03:12;;;;;;;10.77;4.88;;;;;;;;;;4968546;28;20157;-64
2024/01/29 11:05:54;;;;;;;9.05;4.25;;;;;;;;;;4955170;28;20061;-65
2024/01/29 11:08:27;;;;;;;10.07;4.72;;;;;;;;;;4961466;28;20046;-65
2024/01/29 11:10:57;;;;;;;10.10;4.15;;;;;;;;;;4958929;28;20055;-65
2024/01/29 11:13:26;;;;;;;11.98;4.60;;;;;;;;;;4964054;28;20074;-63
2024/01/29 11:15:55;;;;;;;11.00;4.72;;;;;;;;;;4941034;28;20062;-64
2024/01/29 11:18:23;;;;;;;11.00;4.88;;;;;;;;;;4970938;28;20059;-64
2024/01/29 11:20:52;;;;;;;;;;;;;;;;;;4973057;28;20110;-65
2024/01/29 11:23:22;;;;;;;11.85;5.75;;;;;;;;;;4974667;28;19945;-65
2024/01/29 11:25:51;;;;;;;9.48;4.53;;;;;;;;;;4932291;28;20133;-64
2024/01/29 11:28:18;;;;;;;10.88;4.97;;;;;;;;;;4965040;28;20167;-66
2024/01/29 11:30:49;;;;;;;10.20;4.90;;;;;;;;;;4955860;28;20141;-64
2024/01/29 11:33:19;;;;;;;14.32;5.20;;;;;;;;;;4961883;28;20214;-64
2024/01/29 11:35:50;;;;;;;12.57;5.38;;;;;;;;;;4917403;28;20054;-64
2024/01/29 11:38:22;;;;;;;10.05;4.60;;;;;;;;;;4965527;28;20062;-65
2024/01/29 11:40:48;;;;;;;11.25;4.35;;;;;;;;;;4990671;28;20057;-63
2024/01/29 11:43:18;;;;;;;10.70;5.15;;;;;;;;;;4968331;28;20081;-66
2024/01/29 11:45:48;;;;;;;12.10;4.95;;;;;;;;;;4953000;28;20103;-65
2024/01/29 11:48:17;;;;;;;12.40;5.30;;;;;;;;;;4973898;28;20054;-64
2024/01/29 11:50:45;;;;;;;11.15;5.63;;;;;;;;;;4994650;28;20067;-65
2024/01/29 11:53:13;;;;;;;18.58;6.72;;;;;;;;;;4967315;28;20149;-65
2024/01/29 11:55:46;;;;;;;23.00;8.73;;;;;;;;;;4960070;28;20137;-65
2024/01/29 11:58:20;;;;;;;14.25;5.70;;;;;;;;;;4990365;28;20054;-66
2024/01/29 12:00:50;;;;;;;11.05;5.40;;;;;;;;;;4992922;28;20117;-66
2024/01/29 12:03:21;;;;;;;11.65;5.45;;;;;;;;;;4963707;28;20112;-64
2024/01/29 12:05:51;;;;;;;10.85;5.25;;;;;;;;;;4948139;28;20058;-67
2024/01/29 12:08:20;;;;;;;12.98;5.95;;;;;;;;;;4981366;28;20054;-65
2024/01/29 12:10:50;;;;;;;12.68;5.75;;;;;;;;;;4964757;28;20069;-67
2024/01/29 12:13:20;;;;;;;13.55;5.53;;;;;;;;;;4963204;28;20065;-65
2024/01/29 12:15:57;;;;;;;12.23;5.43;;;;;;;;;;4924432;28;20051;-66
2024/01/29 12:18:27;;;;;;;13.63;5.60;;;;;;;;;;4965911;28;20062;-67
2024/01/29 12:20:55;;;;;;;12.35;5.50;;;;;;;;;;4959058;28;20043;-66
2024/01/29 12:23:23;;;;;;;15.15;6.00;;;;;;;;;;4965011;28;20128;-65
2024/01/29 12:25:57;;;;;;;12.73;5.68;;;;;;;;;;4938187;28;20065;-66
2024/01/29 12:28:26;;;;;;;12.38;5.95;;;;;;;;;;4975804;28;20051;-66
2024/01/29 12:30:57;;;;;;;14.98;6.53;;;;;;;;;;4965810;28;20626;-65
2024/01/29 12:33:29;;;;;;;11.98;5.53;;;;;;;;;;4992801;28;20054;-66
2024/01/29 12:35:58;;;;;;;16.75;6.40;;;;;;;;;;4910810;28;20055;-65
2024/01/29 12:38:33;;;;;;;13.35;6.38;;;;;;;;;;4928078;28;20213;-67
2024/01/29 12:41:01;;;;;;;17.60;6.18;;;;;;;;;;4960334;28;20063;-64
2024/01/29 12:43:29;;;;;;;18.00;5.65;;;;;;;;;;4960606;28;20252;-66
2024/01/29 12:46:06;;;;;;;14.27;5.68;;;;;;;;;;4944928;28;20062;-66
2024/01/29 12:48:33;;;;;;;15.32;6.78;;;;;;;;;;4987161;28;20047;-66
2024/01/29 12:51:00;;;;;;;15.90;6.22;;;;;;;;;;4961343;28;20142;-66
2024/01/29 12:53:28;;;;;;;12.23;5.85;;;;;;;;;;4964967;28;20096;-65
2024/01/29 12:55:55;;;;;;;15.88;7.00;;;;;;;;;;4971442;28;20112;-66
2024/01/29 12:58:24;;;;;;;15.98;6.43;;;;;;;;;;4949282;28;20055;-65
2024/01/29 13:00:52;;;;;;;17.35;7.18;;;;;;;;;;4971044;28;20089;-66
2024/01/29 13:03:18;;;;;;;12.43;6.05;;;;;;;;;;4965295;28;20050;-65
2024/01/29 13:05:50;;;;;;;15.25;6.22;;;;;;;;;;4938933;28;20107;-66
2024/01/29 13:08:17;;;;;;;13.77;5.78;;;;;;;;;;4979775;28;20050;-64
2024/01/29 13:10:44;;;;;;;14.00;6.25;;;;;;;;;;4964247;28;20104;-65
2024/01/29 13:13:11;;;;;;;18.48;6.30;;;;;;;;;;4964913;28;20050;-65
2024/01/29 13:15:39;;;;;;;15.95;6.13;;;;;;;;;;4941633;28;20054;-65
2024/01/29 13:18:06;;;;;;;;;;;;;;;;;;4958890;28;20047;-65
2024/01/29 13:20:36;;;;;;;17.38;6.32;;;;;;;;;;4958734;28;19925;-65
2024/01/29 13:23:04;;;;;;;15.43;6.53;;;;;;;;;;4960437;28;20051;-66
2024/01/29 13:25:30;;;;;;;14.18;5.95;;;;;;;;;;4985511;28;20104;-64
2024/01/29 13:28:00;;;;;;;14.55;6.38;;;;;;;;;;4956912;28;20058;-64
2024/01/29 13:30:27;;;;;;;15.18;6.70;;;;;;;;;;4962239;28;20047;-65
2024/01/29 13:32:57;;;;;;;12.38;5.43;;;;;;;;;;4989697;28;20231;-66
2024/01/29 13:35:24;;;;;;;13.13;6.20;;;;;;;;;;4944666;28;20071;-65
2024/01/29 13:37:52;;;;;;;15.90;7.03;;;;;;;;;;4966887;28;20050;-67
2024/01/29 13:40:19;;;;;;;16.63;6.85;;;;;;;;;;4958771;28;20046;-64
2024/01/29 13:42:46;;;;;;;15.00;6.30;;;;;;;;;;4959412;28;20064;-64
2024/01/29 13:45:15;;;;;;;16.02;6.53;;;;;;;;;;4951479;28;20062;-64
2024/01/29 13:47:42;;;;;;;13.20;6.47;;;;;;;;;;4970918;28;20070;-68
2024/01/29 13:50:12;;;;;;;17.48;6.70;;;;;;;;;;4989797;28;20065;-65
2024/01/29 13:52:41;;;;;;;16.17;6.43;;;;;;;;;;4960645;28;20077;-65
2024/01/29 13:55:09;;;;;;;;;;;;;;;;;;4958379;28;20089;-64
2024/01/29 13:57:36;;;;;;;;;;;;;;;;;;4947687;28;19961;-64
2024/01/29 14:00:06;;;;;;;16.10;5.78;;;;;;;;;;4965867;28;20039;-65
2024/01/29 14:02:36;;;;;;;11.98;5.80;;;;;;;;;;4966056;28;20141;-64
2024/01/29 14:05:05;;;;;;;13.88;6.75;;;;;;;;;;4992236;28;20046;-67
2024/01/29 14:07:35;;;;;;;13.45;6.07;;;;;;;;;;4943657;28;20055;-66
2024/01/29 14:10:04;;;;;;;13.43;6.07;;;;;;;;;;4989458;28;20046;-65
2024/01/29 14:12:32;;;;;;;16.25;6.47;;;;;;;;;;4967126;28;20054;-66
2024/01/29 14:15:03;;;;;;;13.18;6.13;;;;;;;;;;4963771;28;20063;-66
2024/01/29 14:17:34;;;;;;;13.30;5.82;;;;;;;;;;4970533;28;20045;-64
2024/01/29 14:20:02;;;;;;;;;;;;;;;;;;4958542;28;20055;-64
2024/01/29 14:22:33;;;;;;;12.73;5.18;;;;;;;;;;4970029;28;20029;-64
2024/01/29 14:25:00;;;;;;;15.00;6.22;;;;;;;;;;4961127;28;20061;-67
2024/01/29 14:27:27;;;;;;;15.50;7.03;;;;;;;;;;4965318;28;20114;-66
2024/01/29 14:29:57;;;;;;;15.30;6.55;;;;;;;;;;4967659;28;20127;-65
2024/01/29 14:32:28;;;;;;;16.80;7.05;;;;;;;;;;4960195;28;20103;-65
2024/01/29 14:34:57;;;;;;;13.57;6.60;;;;;;;;;;4991968;28;20066;-65
2024/01/29 14:37:24;;;;;;;14.25;7.03;;;;;;;;;;4944615;28;20054;-64
2024/01/29 14:39:55;;;;;;;15.27;7.00;;;;;;;;;;4979751;28;20104;-64
2024/01/29 14:42:25;;;;;;;17.20;6.32;;;;;;;;;;4989741;28;20057;-65
2024/01/29 14:44:53;;;;;;;14.68;6.47;;;;;;;;;;4966279;28;20061;-64
2024/01/29 14:47:20;;;;;;;15.65;7.05;;;;;;;;;;4927635;28;20063;-67
2024/01/29 14:49:52;;;;;;;16.95;7.38;;;;;;;;;;4964152;28;20058;-67